Main page
Satellite images 10-day forecastsClimateMarine weather Cyclones Lightning AirportsFAQ Newsletter About
Weather : Europe Africa North America South America Asia Australia-Oceania Others
Languages Contact

Alpine, Texas, United States

Alpine-Casparis Municipal Airport

latitude: 30-23-03N, longitude: 103-41-00W, elevation: 1376 m


METAR: KE38 031955Z AUTO 06011G19KT 10SM SCT050 30/14 A3014 RMK AO2 T02970141
TAF: missing

Time: 15:17 (20:17 UTC)

Current weather observation

The report was made 22 minutes ago, at 19:55 UTC
Wind 11 kt from the East/Northeast with gusts up to 19 kt
Temperature 30°C
Humidity 38%
Pressure 1021 hPa
Visibility: 16.1 km
Scattered clouds at a height of 5000 ft

Change units
The information on this site is subject to a disclaimer
Weather : Europe Africa North America South America Asia Australia-Oceania Others
Satellite images 10-day forecastsClimateMarine weather Cyclones Lightning AirportsFAQ Languages Contact Newsletter About